Amarant — CQSF — position and weather

sailwx.info

Track history (hours):
 
Tides and Currents Weather Stations Pressure Air Temp Water Temp Dewpoint Dewpoint Depression Visibility Wind Speed Wind Dir Waves Ship Positions

Amarant

Last reported at 2017-Feb-26 00:33 UTC. Time now 2017-Feb-26 01:00 UTC.
Position N 51°15' E 004°22'.

Length 119 m; draft 6.4 m.

Type: Tanker. MMSI: 255623000.

Date/timePositionNaut miles runAvg speedWind from/ knotsBaromVisibWave heightAir tempDewpointWater temp
2017-Feb-26 00:33N 51°15' E 004°22'0 0.0
2017-Feb-25 23:33N 51°15' E 004°22'0 0.0
2017-Feb-25 22:33N 51°15' E 004°22'0 0.0
2017-Feb-25 21:33N 51°15' E 004°22'0 0.0
2017-Feb-25 20:33N 51°15' E 004°22'0 0.0
2017-Feb-25 19:30N 51°15' E 004°22'0 0.0
2017-Feb-25 18:33N 51°15' E 004°22'0 0.0
2017-Feb-25 17:33N 51°15' E 004°22'0 0.0
2017-Feb-25 16:33N 51°15' E 004°22'0 0.0
2017-Feb-25 15:33N 51°15' E 004°22'0 0.0
2017-Feb-25 14:33N 51°15' E 004°22'0 0.0
2017-Feb-25 13:33N 51°15' E 004°22'0 0.0
2017-Feb-25 12:32N 51°15' E 004°22'0 0.0
2017-Feb-25 11:32N 51°15' E 004°22'0 0.0
2017-Feb-25 10:32N 51°15' E 004°22'0 0.0
2017-Feb-25 09:32N 51°15' E 004°22'0 0.0
2017-Feb-25 08:32N 51°15' E 004°22'0 0.0
2017-Feb-25 07:32N 51°15' E 004°22'0 0.0
2017-Feb-25 06:32N 51°15' E 004°22'0 0.0
2017-Feb-25 05:32N 51°15' E 004°22'0 0.0
2017-Feb-25 04:32N 51°15' E 004°22'0 0.0
2017-Feb-25 03:32N 51°15' E 004°22'0 0.0
2017-Feb-25 02:32N 51°15' E 004°22'0 0.0
2017-Feb-25 01:32N 51°15' E 004°22'0 0.0
2017-Feb-25 00:32N 51°15' E 004°22'0 0.0
2017-Feb-24 23:32N 51°15' E 004°22'0 0.0
2017-Feb-24 22:32N 51°15' E 004°22'0 0.0
2017-Feb-24 21:32N 51°15' E 004°22'0 0.0
2017-Feb-24 20:32N 51°15' E 004°22'0 0.5
2017-Feb-24 19:33N 51°15' E 004°22'2 1.8
2017-Feb-24 18:34N 51°17' E 004°20'5 5.2
2017-Feb-24 17:33N 51°21' E 004°15'8 8.3
2017-Feb-24 16:33N 51°23' E 004°02'6 6.5
2017-Feb-24 15:34N 51°21' E 003°53'9 9.4
2017-Feb-24 14:33N 51°26' E 003°40'1010.3
2017-Feb-24 13:33N 51°31' E 003°26'1312.2
2017-Feb-24 12:28N 51°43' E 003°16'17 5.8
2017-Feb-24 09:32N 51°60' E 003°20'1010.5
2017-Feb-24 08:33N 52°10' E 003°22'20510.7
2017-Feb-23 13:24N 54°01' E 008°09'1213.8
2017-Feb-23 12:33N 53°59' E 008°29'1514.6
2017-Feb-23 11:34N 53°50' E 008°49'1312.6
2017-Feb-23 10:33N 53°53' E 009°10'9 9.4
2017-Feb-23 09:33N 53°48' E 009°23'1211.6
2017-Feb-23 08:33N 53°37' E 009°33'1313.1
2017-Feb-23 07:34N 53°33' E 009°53'5 4.6
2017-Feb-23 06:34N 53°29' E 009°57'0 0.0
2017-Feb-23 05:32N 53°29' E 009°57'0 0.0
2017-Feb-23 04:32N 53°29' E 009°57'0 0.0
2017-Feb-23 03:32N 53°29' E 009°57'0 0.0
2017-Feb-23 02:32N 53°29' E 009°57'0 0.0
2017-Feb-23 01:32N 53°29' E 009°57'0 0.0
2017-Feb-23 00:32N 53°29' E 009°57'0 0.0
2017-Feb-22 23:31N 53°29' E 009°57'0 0.0
2017-Feb-22 22:31N 53°29' E 009°57'0 0.0
2017-Feb-22 21:31N 53°29' E 009°57'0 0.0
2017-Feb-22 20:31N 53°29' E 009°57'0 0.0
2017-Feb-22 19:31N 53°29' E 009°57'0 0.0
2017-Feb-22 18:31N 53°29' E 009°57'0 0.0
2017-Feb-22 17:31N 53°29' E 009°57'0 0.0
2017-Feb-22 16:31N 53°29' E 009°57'0 0.0
2017-Feb-22 15:28N 53°29' E 009°57'0 0.0
2017-Feb-22 14:31N 53°29' E 009°57'0 0.0
2017-Feb-22 13:31N 53°29' E 009°57'0 0.0
2017-Feb-22 12:31N 53°29' E 009°57'0 0.0
2017-Feb-22 11:31N 53°29' E 009°57'0 0.0
2017-Feb-22 10:31N 53°29' E 009°57'0 0.0
2017-Feb-22 09:31N 53°29' E 009°57'0 0.0
2017-Feb-22 08:31N 53°29' E 009°57'0 0.0
2017-Feb-22 07:31N 53°29' E 009°57'0 0.0
2017-Feb-22 06:31N 53°29' E 009°57'0 0.0
2017-Feb-22 05:31N 53°29' E 009°57'0 0.0
2017-Feb-22 04:31N 53°29' E 009°57'0 0.0
2017-Feb-22 03:31N 53°29' E 009°57'0 0.0
2017-Feb-22 02:31N 53°29' E 009°57'0 0.0
2017-Feb-22 01:31N 53°29' E 009°57'0 0.0
2017-Feb-22 00:31N 53°29' E 009°57'0 0.0
2017-Feb-21 23:31N 53°29' E 009°57'0 0.0
2017-Feb-21 22:31N 53°29' E 009°57'0 0.0
2017-Feb-21 21:31N 53°29' E 009°57'0 0.0
2017-Feb-21 20:31N 53°29' E 009°57'0 0.0
2017-Feb-21 19:31N 53°29' E 009°57'0 0.0
2017-Feb-21 18:31N 53°29' E 009°57'0 0.0
2017-Feb-21 17:34N 53°29' E 009°57'4 3.7
2017-Feb-21 16:34N 53°32' E 009°56'8 8.3
2017-Feb-21 15:34N 53°34' E 009°42'1010.2
2017-Feb-21 14:34N 53°41' E 009°30'1211.9
2017-Feb-21 13:34N 53°51' E 009°19'1010.4
2017-Feb-21 12:34N 53°51' E 009°01'1110.8
2017-Feb-21 11:34N 53°52' E 008°43'1111.0
2017-Feb-21 10:33N 53°59' E 008°28'1313.1
2017-Feb-21 09:33N 53°59' E 008°05'1414.3
2017-Feb-21 08:33N 53°56' E 007°42'13014.5
2017-Feb-20 23:33N 53°01' E 004°23'1515.3
2017-Feb-20 22:33N 52°48' E 004°10'1515.5
2017-Feb-20 21:33N 52°37' E 003°53'5814.4
2017-Feb-20 17:31N 51°43' E 003°16'1313.2
2017-Feb-20 16:33N 51°32' E 003°26'10 9.6
2017-Feb-20 15:33N 51°26' E 003°38'1211.6
2017-Feb-20 14:33N 51°22' E 003°56'10 9.9
2017-Feb-20 13:34N 51°24' E 004°11'5 4.7
2017-Feb-20 12:32N 51°21' E 004°17'1 0.6
2017-Feb-20 11:34N 51°21' E 004°18'6 5.6
2017-Feb-20 10:34N 51°15' E 004°22'1 0.6
2017-Feb-20 09:33N 51°15' E 004°22'0 0.0
2017-Feb-20 08:33N 51°15' E 004°22'0 0.0
2017-Feb-20 07:33N 51°15' E 004°22'0 0.0
2017-Feb-20 06:33N 51°15' E 004°22'0 0.0
2017-Feb-20 05:33N 51°15' E 004°22'0 0.0
2017-Feb-20 04:33N 51°15' E 004°22'0 0.0
2017-Feb-20 03:33N 51°15' E 004°22'0 0.0
2017-Feb-20 02:33N 51°15' E 004°22'0 0.0
2017-Feb-20 01:33N 51°15' E 004°22'0 0.0
2017-Feb-20 00:33N 51°15' E 004°22'0 0.0
2017-Feb-19 23:33N 51°15' E 004°22'0 0.0
2017-Feb-19 22:32N 51°15' E 004°22'0 0.0
2017-Feb-19 21:32N 51°15' E 004°22'0 0.0
2017-Feb-19 20:32N 51°15' E 004°22'0 0.0
2017-Feb-19 19:32N 51°15' E 004°22'0 0.0
2017-Feb-19 18:32N 51°15' E 004°22'0 0.0
2017-Feb-19 17:32N 51°15' E 004°22'0 0.0
2017-Feb-19 16:32N 51°15' E 004°22'0 0.0
2017-Feb-19 15:32N 51°15' E 004°22'0 0.0
2017-Feb-19 14:32N 51°15' E 004°22'0 0.0
2017-Feb-19 13:32N 51°15' E 004°22'0 0.0
2017-Feb-19 12:32N 51°15' E 004°22'0 0.0
2017-Feb-19 11:32N 51°15' E 004°22'0 0.0
2017-Feb-19 10:32N 51°15' E 004°22'0 0.0
2017-Feb-19 09:32N 51°15' E 004°22'0 0.0
2017-Feb-19 08:32N 51°15' E 004°22'0 0.0
2017-Feb-19 07:32N 51°15' E 004°22'0 0.0
2017-Feb-19 06:32N 51°15' E 004°22'0 0.0
2017-Feb-19 05:32N 51°15' E 004°22'0 0.0
2017-Feb-19 04:32N 51°15' E 004°22'0 0.0
2017-Feb-19 03:32N 51°15' E 004°22'0 0.0
2017-Feb-19 02:32N 51°15' E 004°22'0 0.0
2017-Feb-19 01:32N 51°15' E 004°22'0 0.0
2017-Feb-19 00:32N 51°15' E 004°22'0 0.0
2017-Feb-18 23:32N 51°15' E 004°22'0 0.0
2017-Feb-18 22:32N 51°15' E 004°22'0 0.0
2017-Feb-18 21:32N 51°15' E 004°22'0 0.0
2017-Feb-18 20:32N 51°15' E 004°22'2 2.2
2017-Feb-18 19:33N 51°17' E 004°20'2 1.5
2017-Feb-18 18:33N 51°18' E 004°18'9 9.2
2017-Feb-18 17:33N 51°22' E 004°05'1010.0
2017-Feb-18 16:33N 51°21' E 003°49'1211.6
2017-Feb-18 15:33N 51°27' E 003°33'1312.9
2017-Feb-18 14:32N 51°37' E 003°21'9 7.8
2017-Feb-18 13:23N 51°46' E 003°17'0 0.0
2017-Feb-18 12:31N 51°46' E 003°17'0 0.0
2017-Feb-18 11:28N 51°46' E 003°17'0 0.0
2017-Feb-18 08:19N 51°46' E 003°17'0 0.0
2017-Feb-18 07:19N 51°46' E 003°17'0 0.0
2017-Feb-18 06:19N 51°46' E 003°17'0 0.0
2017-Feb-18 05:16N 51°46' E 003°17'0 0.0
2017-Feb-18 04:31N 51°46' E 003°17'0 0.1
2017-Feb-18 03:28N 51°46' E 003°17'0 0.0
2017-Feb-18 02:22N 51°46' E 003°17'0 0.0
2017-Feb-18 00:31N 51°46' E 003°17'0 0.0
2017-Feb-17 23:31N 51°46' E 003°17'0 0.0
2017-Feb-17 22:31N 51°46' E 003°17'0 0.1
2017-Feb-17 21:28N 51°46' E 003°17'0 0.0
2017-Feb-17 20:07N 51°46' E 003°17'0 0.0
2017-Feb-17 18:19N 51°46' E 003°17'0 0.2
2017-Feb-17 16:33N 51°46' E 003°18'1412.7
2017-Feb-17 15:27N 52°01' E 003°20'11012.4
2017-Feb-17 06:33N 53°33' E 004°58'1313.1
2017-Feb-17 05:33N 53°37' E 005°19'10811.9
2017-Feb-16 20:30N 53°60' E 008°18'1414.8
2017-Feb-16 19:33N 53°55' E 008°41'1312.6
2017-Feb-16 18:33N 53°52' E 009°01'5 4.9
2017-Feb-16 17:33N 53°54' E 009°09'5 4.7
2017-Feb-16 16:34N 53°57' E 009°14'8 7.6
2017-Feb-16 15:33N 54°04' E 009°19'53 5.9
2017-Feb-16 06:31N 54°34' E 010°35'1213.0
2017-Feb-16 05:33N 54°36' E 010°56'1212.0
2017-Feb-16 04:33N 54°34' E 011°16'1313.4
2017-Feb-16 03:33N 54°29' E 011°38'1312.5
2017-Feb-16 02:33N 54°27' E 011°59'1010.3
2017-Feb-16 01:33N 54°33' E 012°13'1212.4
2017-Feb-16 00:33N 54°42' E 012°27'  
Track history (hours):
 
Tides and Currents Weather Stations Pressure Air Temp Water Temp Dewpoint Dewpoint Depression Visibility Wind Speed Wind Dir Waves Ship Positions

Amarant

Last reported at 2017-Feb-26 00:33 UTC. Time now 2017-Feb-26 01:00 UTC.
Position N 51°15' E 004°22'.

Length 119 m; draft 6.4 m.

Type: Tanker. MMSI: 255623000.

Date/timePositionNaut miles runAvg speedWind from/ knotsBaromVisibWave heightAir tempDewpointWater temp
2017-Feb-26 00:33N 51°15' E 004°22'0 0.0
2017-Feb-25 23:33N 51°15' E 004°22'0 0.0
2017-Feb-25 22:33N 51°15' E 004°22'0 0.0
2017-Feb-25 21:33N 51°15' E 004°22'0 0.0
2017-Feb-25 20:33N 51°15' E 004°22'0 0.0
2017-Feb-25 19:30N 51°15' E 004°22'0 0.0
2017-Feb-25 18:33N 51°15' E 004°22'0 0.0
2017-Feb-25 17:33N 51°15' E 004°22'0 0.0
2017-Feb-25 16:33N 51°15' E 004°22'0 0.0
2017-Feb-25 15:33N 51°15' E 004°22'0 0.0
2017-Feb-25 14:33N 51°15' E 004°22'0 0.0
2017-Feb-25 13:33N 51°15' E 004°22'0 0.0
2017-Feb-25 12:32N 51°15' E 004°22'0 0.0
2017-Feb-25 11:32N 51°15' E 004°22'0 0.0
2017-Feb-25 10:32N 51°15' E 004°22'0 0.0
2017-Feb-25 09:32N 51°15' E 004°22'0 0.0
2017-Feb-25 08:32N 51°15' E 004°22'0 0.0
2017-Feb-25 07:32N 51°15' E 004°22'0 0.0
2017-Feb-25 06:32N 51°15' E 004°22'0 0.0
2017-Feb-25 05:32N 51°15' E 004°22'0 0.0
2017-Feb-25 04:32N 51°15' E 004°22'0 0.0
2017-Feb-25 03:32N 51°15' E 004°22'0 0.0
2017-Feb-25 02:32N 51°15' E 004°22'0 0.0
2017-Feb-25 01:32N 51°15' E 004°22'0 0.0
2017-Feb-25 00:32N 51°15' E 004°22'0 0.0
2017-Feb-24 23:32N 51°15' E 004°22'0 0.0
2017-Feb-24 22:32N 51°15' E 004°22'0 0.0
2017-Feb-24 21:32N 51°15' E 004°22'0 0.0
2017-Feb-24 20:32N 51°15' E 004°22'0 0.5
2017-Feb-24 19:33N 51°15' E 004°22'2 1.8
2017-Feb-24 18:34N 51°17' E 004°20'5 5.2
2017-Feb-24 17:33N 51°21' E 004°15'8 8.3
2017-Feb-24 16:33N 51°23' E 004°02'6 6.5
2017-Feb-24 15:34N 51°21' E 003°53'9 9.4
2017-Feb-24 14:33N 51°26' E 003°40'1010.3
2017-Feb-24 13:33N 51°31' E 003°26'1312.2
2017-Feb-24 12:28N 51°43' E 003°16'17 5.8
2017-Feb-24 09:32N 51°60' E 003°20'1010.5
2017-Feb-24 08:33N 52°10' E 003°22'20510.7
2017-Feb-23 13:24N 54°01' E 008°09'1213.8
2017-Feb-23 12:33N 53°59' E 008°29'1514.6
2017-Feb-23 11:34N 53°50' E 008°49'1312.6
2017-Feb-23 10:33N 53°53' E 009°10'9 9.4
2017-Feb-23 09:33N 53°48' E 009°23'1211.6
2017-Feb-23 08:33N 53°37' E 009°33'1313.1
2017-Feb-23 07:34N 53°33' E 009°53'5 4.6
2017-Feb-23 06:34N 53°29' E 009°57'0 0.0
2017-Feb-23 05:32N 53°29' E 009°57'0 0.0
2017-Feb-23 04:32N 53°29' E 009°57'0 0.0
2017-Feb-23 03:32N 53°29' E 009°57'0 0.0
2017-Feb-23 02:32N 53°29' E 009°57'0 0.0
2017-Feb-23 01:32N 53°29' E 009°57'0 0.0
2017-Feb-23 00:32N 53°29' E 009°57'0 0.0
2017-Feb-22 23:31N 53°29' E 009°57'0 0.0
2017-Feb-22 22:31N 53°29' E 009°57'0 0.0
2017-Feb-22 21:31N 53°29' E 009°57'0 0.0
2017-Feb-22 20:31N 53°29' E 009°57'0 0.0
2017-Feb-22 19:31N 53°29' E 009°57'0 0.0
2017-Feb-22 18:31N 53°29' E 009°57'0 0.0
2017-Feb-22 17:31N 53°29' E 009°57'0 0.0
2017-Feb-22 16:31N 53°29' E 009°57'0 0.0
2017-Feb-22 15:28N 53°29' E 009°57'0 0.0
2017-Feb-22 14:31N 53°29' E 009°57'0 0.0
2017-Feb-22 13:31N 53°29' E 009°57'0 0.0
2017-Feb-22 12:31N 53°29' E 009°57'0 0.0
2017-Feb-22 11:31N 53°29' E 009°57'0 0.0
2017-Feb-22 10:31N 53°29' E 009°57'0 0.0
2017-Feb-22 09:31N 53°29' E 009°57'0 0.0
2017-Feb-22 08:31N 53°29' E 009°57'0 0.0
2017-Feb-22 07:31N 53°29' E 009°57'0 0.0
2017-Feb-22 06:31N 53°29' E 009°57'0 0.0
2017-Feb-22 05:31N 53°29' E 009°57'0 0.0
2017-Feb-22 04:31N 53°29' E 009°57'0 0.0
2017-Feb-22 03:31N 53°29' E 009°57'0 0.0
2017-Feb-22 02:31N 53°29' E 009°57'0 0.0
2017-Feb-22 01:31N 53°29' E 009°57'0 0.0
2017-Feb-22 00:31N 53°29' E 009°57'0 0.0
2017-Feb-21 23:31N 53°29' E 009°57'0 0.0
2017-Feb-21 22:31N 53°29' E 009°57'0 0.0
2017-Feb-21 21:31N 53°29' E 009°57'0 0.0
2017-Feb-21 20:31N 53°29' E 009°57'0 0.0
2017-Feb-21 19:31N 53°29' E 009°57'0 0.0
2017-Feb-21 18:31N 53°29' E 009°57'0 0.0
2017-Feb-21 17:34N 53°29' E 009°57'4 3.7
2017-Feb-21 16:34N 53°32' E 009°56'8 8.3
2017-Feb-21 15:34N 53°34' E 009°42'1010.2
2017-Feb-21 14:34N 53°41' E 009°30'1211.9
2017-Feb-21 13:34N 53°51' E 009°19'1010.4
2017-Feb-21 12:34N 53°51' E 009°01'1110.8
2017-Feb-21 11:34N 53°52' E 008°43'1111.0
2017-Feb-21 10:33N 53°59' E 008°28'1313.1
2017-Feb-21 09:33N 53°59' E 008°05'1414.3
2017-Feb-21 08:33N 53°56' E 007°42'13014.5
2017-Feb-20 23:33N 53°01' E 004°23'1515.3
2017-Feb-20 22:33N 52°48' E 004°10'1515.5
2017-Feb-20 21:33N 52°37' E 003°53'5814.4
2017-Feb-20 17:31N 51°43' E 003°16'1313.2
2017-Feb-20 16:33N 51°32' E 003°26'10 9.6
2017-Feb-20 15:33N 51°26' E 003°38'1211.6
2017-Feb-20 14:33N 51°22' E 003°56'10 9.9
2017-Feb-20 13:34N 51°24' E 004°11'5 4.7
2017-Feb-20 12:32N 51°21' E 004°17'1 0.6
2017-Feb-20 11:34N 51°21' E 004°18'6 5.6
2017-Feb-20 10:34N 51°15' E 004°22'1 0.6
2017-Feb-20 09:33N 51°15' E 004°22'0 0.0
2017-Feb-20 08:33N 51°15' E 004°22'0 0.0
2017-Feb-20 07:33N 51°15' E 004°22'0 0.0
2017-Feb-20 06:33N 51°15' E 004°22'0 0.0
2017-Feb-20 05:33N 51°15' E 004°22'0 0.0
2017-Feb-20 04:33N 51°15' E 004°22'0 0.0
2017-Feb-20 03:33N 51°15' E 004°22'0 0.0
2017-Feb-20 02:33N 51°15' E 004°22'0 0.0
2017-Feb-20 01:33N 51°15' E 004°22'0 0.0
2017-Feb-20 00:33N 51°15' E 004°22'0 0.0
2017-Feb-19 23:33N 51°15' E 004°22'0 0.0
2017-Feb-19 22:32N 51°15' E 004°22'0 0.0
2017-Feb-19 21:32N 51°15' E 004°22'0 0.0
2017-Feb-19 20:32N 51°15' E 004°22'0 0.0
2017-Feb-19 19:32N 51°15' E 004°22'0 0.0
2017-Feb-19 18:32N 51°15' E 004°22'0 0.0
2017-Feb-19 17:32N 51°15' E 004°22'0 0.0
2017-Feb-19 16:32N 51°15' E 004°22'0 0.0
2017-Feb-19 15:32N 51°15' E 004°22'0 0.0
2017-Feb-19 14:32N 51°15' E 004°22'0 0.0
2017-Feb-19 13:32N 51°15' E 004°22'0 0.0
2017-Feb-19 12:32N 51°15' E 004°22'0 0.0
2017-Feb-19 11:32N 51°15' E 004°22'0 0.0
2017-Feb-19 10:32N 51°15' E 004°22'0 0.0
2017-Feb-19 09:32N 51°15' E 004°22'0 0.0
2017-Feb-19 08:32N 51°15' E 004°22'0 0.0
2017-Feb-19 07:32N 51°15' E 004°22'0 0.0
2017-Feb-19 06:32N 51°15' E 004°22'0 0.0
2017-Feb-19 05:32N 51°15' E 004°22'0 0.0
2017-Feb-19 04:32N 51°15' E 004°22'0 0.0
2017-Feb-19 03:32N 51°15' E 004°22'0 0.0
2017-Feb-19 02:32N 51°15' E 004°22'0 0.0
2017-Feb-19 01:32N 51°15' E 004°22'0 0.0
2017-Feb-19 00:32N 51°15' E 004°22'0 0.0
2017-Feb-18 23:32N 51°15' E 004°22'0 0.0
2017-Feb-18 22:32N 51°15' E 004°22'0 0.0
2017-Feb-18 21:32N 51°15' E 004°22'0 0.0
2017-Feb-18 20:32N 51°15' E 004°22'2 2.2
2017-Feb-18 19:33N 51°17' E 004°20'2 1.5
2017-Feb-18 18:33N 51°18' E 004°18'9 9.2
2017-Feb-18 17:33N 51°22' E 004°05'1010.0
2017-Feb-18 16:33N 51°21' E 003°49'1211.6
2017-Feb-18 15:33N 51°27' E 003°33'1312.9
2017-Feb-18 14:32N 51°37' E 003°21'9 7.8
2017-Feb-18 13:23N 51°46' E 003°17'0 0.0
2017-Feb-18 12:31N 51°46' E 003°17'0 0.0
2017-Feb-18 11:28N 51°46' E 003°17'0 0.0
2017-Feb-18 08:19N 51°46' E 003°17'0 0.0
2017-Feb-18 07:19N 51°46' E 003°17'0 0.0
2017-Feb-18 06:19N 51°46' E 003°17'0 0.0
2017-Feb-18 05:16N 51°46' E 003°17'0 0.0
2017-Feb-18 04:31N 51°46' E 003°17'0 0.1
2017-Feb-18 03:28N 51°46' E 003°17'0 0.0
2017-Feb-18 02:22N 51°46' E 003°17'0 0.0
2017-Feb-18 00:31N 51°46' E 003°17'0 0.0
2017-Feb-17 23:31N 51°46' E 003°17'0 0.0
2017-Feb-17 22:31N 51°46' E 003°17'0 0.1
2017-Feb-17 21:28N 51°46' E 003°17'0 0.0
2017-Feb-17 20:07N 51°46' E 003°17'0 0.0
2017-Feb-17 18:19N 51°46' E 003°17'0 0.2
2017-Feb-17 16:33N 51°46' E 003°18'1412.7
2017-Feb-17 15:27N 52°01' E 003°20'11012.4
2017-Feb-17 06:33N 53°33' E 004°58'1313.1
2017-Feb-17 05:33N 53°37' E 005°19'10811.9
2017-Feb-16 20:30N 53°60' E 008°18'1414.8
2017-Feb-16 19:33N 53°55' E 008°41'1312.6
2017-Feb-16 18:33N 53°52' E 009°01'5 4.9
2017-Feb-16 17:33N 53°54' E 009°09'5 4.7
2017-Feb-16 16:34N 53°57' E 009°14'8 7.6
2017-Feb-16 15:33N 54°04' E 009°19'53 5.9
2017-Feb-16 06:31N 54°34' E 010°35'1213.0
2017-Feb-16 05:33N 54°36' E 010°56'1212.0
2017-Feb-16 04:33N 54°34' E 011°16'1313.4
2017-Feb-16 03:33N 54°29' E 011°38'1312.5
2017-Feb-16 02:33N 54°27' E 011°59'1010.3
2017-Feb-16 01:33N 54°33' E 012°13'1212.4
2017-Feb-16 00:33N 54°42' E 012°27'  

Dump ship's entire track history